• Join FlightAware (Why Join?)
  • Login
  • US Flag 
08:46AM EDT


 

Airport Tracker/Info


-or-


 

Live Flight TrackerFlight Track Log ✈ KAP826 ✈ 02-Feb-2014 ✈ KALB - KMSS

Flight Track Log - Related Links

Times and Time Zones

All times are in EST time to prevent confusion due to time zone crossing. See the KAP826 flight status page for this flight to view local times or setup timezone preferences in your user account.

Time Position Orientation Groundspeed Altitude Reporting Facility
EST Latitude Longitude Course Direction KTS MPH feet Rate Location/Type
06:56PM 42.8150 -73.8225 346° North 120 138 2,100  Level Boston Center
06:56PM 42.8378 -73.8353 338° Northwest 124 143 2,800 840 Climbing Boston Center
06:57PM 42.8467 -73.8392 342° North 122 140 3,000 780 Climbing Boston Center
06:57PM 42.8711 -73.8525 338° Northwest 129 148 3,600 900 Climbing Boston Center
06:58PM 42.8803 -73.8572 339° North 128 147 3,900 660 Climbing Boston Center
06:58PM 42.9050 -73.8669 344° North 130 150 4,300 540 Climbing Boston Center
06:59PM 42.9181 -73.8731 341° North 132 152 4,500 360 Climbing Boston Center
06:59PM 42.9428 -73.8828 344° North 132 152 4,700 240 Climbing Boston Center
07:00PM 42.9519 -73.8878 338° Northwest 127 146 4,800 360 Climbing Boston Center
07:00PM 42.9761 -73.9000 340° North 127 146 5,100 480 Climbing Boston Center
07:01PM 42.9853 -73.9047 339° North 127 146 5,300 480 Climbing Boston Center
07:01PM 43.0075 -73.9164 339° North 124 143 5,600 360 Climbing Boston Center
07:02PM 43.0183 -73.9203 345° North 125 144 5,700 300 Climbing Boston Center
07:02PM 43.0394 -73.9303 341° North 125 144 5,900 360 Climbing Boston Center
07:03PM 43.0539 -73.9356 345° North 126 145 6,100 480 Climbing Boston Center
07:03PM 43.0711 -73.9442 340° North 124 143 6,400 480 Climbing Boston Center
07:04PM 43.0872 -73.9503 345° North 126 145 6,600 360 Climbing Boston Center
07:04PM 43.1050 -73.9586 341° North 128 147 6,800 240 Climbing Boston Center
07:05PM 43.1219 -73.9650 345° North 131 151 6,900 60 Climbing Boston Center
07:06PM 43.1608 -73.9831 341° North 145 167 6,900  Level Boston Center
07:07PM 43.2003 -74.0028 340° North 151 174 6,900 -60 Level Boston Center
07:08PM 43.2461 -74.0253 340° North 161 185 6,800 -60 Descending Boston Center
07:09PM 43.2864 -74.0447 341° North 153 176 6,800  Level Boston Center
07:10PM 43.3267 -74.0625 342° North 152 175 6,800  Level Boston Center
07:11PM 43.3675 -74.0822 341° North 155 178 6,800  Level Boston Center
07:12PM 43.4044 -74.1006 340° North 156 180 6,900  Climbing Boston Center
07:13PM 43.4439 -74.1206 340° North 153 176 6,900  Level Boston Center
07:14PM 43.4922 -74.1447 340° North 155 178 6,900  Level Boston Center
07:15PM 43.5328 -74.1650 340° North 155 178 6,900  Level Boston Center
07:16PM 43.5739 -74.1850 341° North 156 180 6,900  Level Boston Center
07:17PM 43.6153 -74.2064 339° North 158 182 6,900  Level Boston Center
07:18PM 43.6581 -74.2258 342° North 160 184 6,900  Level Boston Center
07:19PM 43.6992 -74.2450 341° North 159 183 6,900  Level Boston Center
07:20PM 43.7392 -74.2644 341° North 155 178 6,900  Level Boston Center
07:21PM 43.7794 -74.2836 341° North 155 178 7,000  Climbing Boston Center
07:22PM 43.8206 -74.3042 340° North 155 178 6,900 -60 Descending Boston Center
07:23PM 43.8622 -74.3239 341° North 157 181 6,900  Level Boston Center
07:24PM 43.9022 -74.3422 342° North 154 177 6,900 -60 Level Boston Center
07:25PM 43.9525 -74.3667 341° North 158 182 6,800 -60 Descending Boston Center
07:26PM 43.9936 -74.3864 341° North 157 181 6,800  Level Boston Center
07:27PM 44.0328 -74.4119 335° Northwest 157 181 6,800  Level Boston Center
07:28PM 44.0708 -74.4389 333° Northwest 155 178 6,800  Level Boston Center
07:29PM 44.1089 -74.4656 333° Northwest 153 176 6,800  Level Boston Center
07:30PM 44.1433 -74.4950 328° Northwest 150 173 6,900  Climbing Boston Center
07:31PM 44.1803 -74.5261 329° Northwest 153 176 6,900  Level Boston Center
07:32PM 44.2167 -74.5550 330° Northwest 152 175 6,900  Level Boston Center
07:33PM 44.2528 -74.5850 329° Northwest 152 175 6,900 -120 Level Boston Center
07:34PM 44.2881 -74.6169 327° Northwest 151 174 6,700 -360 Descending Boston Center
07:35PM 44.3258 -74.6467 331° Northwest 154 177 6,300 -600 Descending Boston Center
07:36PM 44.3731 -74.6853 330° Northwest 161 185 5,600 -600 Descending Boston Center
07:37PM 44.4136 -74.7181 330° Northwest 166 191 5,100 -360 Descending Boston Center
07:38PM 44.4508 -74.7483 330° Northwest 161 185 4,900 -240 Descending Boston Center